createdAt,value
2022-09-27T00:01:00.845Z,10.50
2022-09-27T00:03:29.338Z,10.50
2022-09-27T00:06:10.382Z,10.60
2022-09-27T00:08:38.557Z,10.50
2022-09-27T00:11:09.042Z,10.50
2022-09-27T00:13:37.217Z,10.50
2022-09-27T00:16:06.049Z,10.50
2022-09-27T00:18:35.080Z,10.50
2022-09-27T00:21:09.306Z,10.50
2022-09-27T00:23:37.728Z,10.50
2022-09-27T00:26:07.077Z,10.50
2022-09-27T00:28:35.609Z,10.30
2022-09-27T00:31:03.901Z,10.40
2022-09-27T00:33:32.024Z,10.40
2022-09-27T00:36:07.337Z,10.40
2022-09-27T00:38:35.230Z,10.30
2022-09-27T00:41:03.172Z,10.40
2022-09-27T00:43:45.230Z,10.50
2022-09-27T00:46:18.371Z,10.60
2022-09-27T00:48:47.678Z,10.60
2022-09-27T00:51:17.635Z,10.60
2022-09-27T00:53:51.543Z,10.50
2022-09-27T00:56:23.126Z,10.40
2022-09-27T00:58:56.719Z,10.30
2022-09-27T01:01:24.762Z,10.30
2022-09-27T01:03:57.687Z,10.30
2022-09-27T01:06:27.388Z,10.40
2022-09-27T01:08:55.252Z,10.40
2022-09-27T01:11:35.914Z,10.40
2022-09-27T01:14:28.727Z,10.50
2022-09-27T01:17:03.452Z,10.50
2022-09-27T01:20:01.449Z,10.50
2022-09-27T01:22:35.521Z,10.50
2022-09-27T01:25:17.159Z,10.50
2022-09-27T01:28:14.503Z,10.40
2022-09-27T01:30:48.713Z,10.40
2022-09-27T01:33:32.662Z,10.50
2022-09-27T01:36:15.675Z,10.50
2022-09-27T01:38:53.207Z,10.40
2022-09-27T01:41:32.017Z,10.30
2022-09-27T01:44:26.100Z,10.30
2022-09-27T01:47:06.744Z,10.20
2022-09-27T01:50:00.065Z,10.20
2022-09-27T01:52:33.561Z,10.30
2022-09-27T01:55:02.728Z,10.20
2022-09-27T01:57:56.716Z,10.20
2022-09-27T02:00:27.132Z,10.20
2022-09-27T02:03:01.709Z,10.10
2022-09-27T02:05:41.001Z,10.10
2022-09-27T02:08:29.518Z,10.00
2022-09-27T02:11:04.347Z,10.00
2022-09-27T02:13:38.965Z,10.00
2022-09-27T02:16:37.224Z,10.00
2022-09-27T02:19:12.337Z,10.00
2022-09-27T02:21:45.985Z,9.90
2022-09-27T02:24:20.533Z,9.90
2022-09-27T02:26:58.220Z,9.90
2022-09-27T02:29:35.345Z,9.90
2022-09-27T02:32:03.777Z,9.90
2022-09-27T02:34:35.593Z,9.90
2022-09-27T02:37:03.800Z,9.90
2022-09-27T02:39:32.040Z,9.90
2022-09-27T02:42:06.496Z,9.80
2022-09-27T02:44:35.132Z,9.80
2022-09-27T02:47:22.138Z,9.80
2022-09-27T02:50:04.390Z,9.90
2022-09-27T02:53:11.816Z,9.90
2022-09-27T02:55:52.774Z,9.90
2022-09-27T02:59:03.849Z,9.90
2022-09-27T03:01:54.346Z,9.90
2022-09-27T03:04:40.427Z,9.90
2022-09-27T03:07:10.020Z,9.90
2022-09-27T03:09:48.087Z,9.90
2022-09-27T03:12:20.613Z,9.90
2022-09-27T03:14:48.539Z,9.90
2022-09-27T03:17:39.386Z,9.90
2022-09-27T03:20:25.748Z,9.90
2022-09-27T03:23:05.270Z,9.90
2022-09-27T03:25:33.589Z,9.90
2022-09-27T03:28:02.282Z,9.90
2022-09-27T03:30:30.728Z,9.90
2022-09-27T03:32:59.282Z,9.80
2022-09-27T03:35:46.919Z,9.80
2022-09-27T03:38:17.145Z,9.80
2022-09-27T03:40:45.514Z,9.80
2022-09-27T03:43:14.513Z,9.80
2022-09-27T03:45:45.775Z,9.80
2022-09-27T03:48:14.249Z,9.70
2022-09-27T03:50:42.666Z,9.70
2022-09-27T03:53:10.622Z,9.70
2022-09-27T03:55:39.819Z,9.70
2022-09-27T03:58:08.295Z,9.60
2022-09-27T04:00:37.140Z,9.50
2022-09-27T04:03:05.278Z,9.60
2022-09-27T04:05:53.492Z,9.60
2022-09-27T04:08:27.387Z,9.60
2022-09-27T04:10:56.613Z,9.70
2022-09-27T04:13:25.269Z,9.80
2022-09-27T04:15:55.995Z,9.80
2022-09-27T04:18:53.344Z,9.80
2022-09-27T04:21:42.804Z,9.80
2022-09-27T04:24:12.308Z,9.80
2022-09-27T04:26:46.963Z,9.80
2022-09-27T04:29:16.010Z,9.80
2022-09-27T04:31:50.237Z,9.70
2022-09-27T04:34:45.578Z,9.70
2022-09-27T04:37:13.918Z,9.80
2022-09-27T04:39:45.926Z,9.80
2022-09-27T04:42:15.163Z,9.80
2022-09-27T04:44:43.057Z,9.80
2022-09-27T04:47:10.969Z,9.70
2022-09-27T04:49:39.132Z,9.70
2022-09-27T04:52:06.978Z,9.70
2022-09-27T04:54:35.106Z,9.70
2022-09-27T04:57:12.205Z,9.70
2022-09-27T04:59:42.706Z,9.60
2022-09-27T05:02:11.148Z,9.60
2022-09-27T05:04:57.969Z,9.60
2022-09-27T05:07:26.112Z,9.60
2022-09-27T05:09:59.156Z,9.60
2022-09-27T05:12:27.751Z,9.60
2022-09-27T05:15:00.465Z,9.70
2022-09-27T05:17:46.386Z,9.70
2022-09-27T05:20:20.442Z,9.70
2022-09-27T05:22:58.265Z,9.70
2022-09-27T05:25:26.203Z,9.70
2022-09-27T05:27:54.050Z,9.70
2022-09-27T05:30:23.398Z,9.80
2022-09-27T05:32:55.764Z,9.80
2022-09-27T05:35:47.200Z,9.80
2022-09-27T05:38:15.248Z,9.80
2022-09-27T05:40:48.288Z,9.80
2022-09-27T05:43:16.954Z,9.70
2022-09-27T05:45:46.512Z,9.80
2022-09-27T05:48:16.725Z,9.70
2022-09-27T05:50:53.490Z,9.80
2022-09-27T05:53:21.467Z,9.80
2022-09-27T05:55:49.654Z,9.80
2022-09-27T05:58:20.625Z,9.70
2022-09-27T06:00:56.193Z,9.80
2022-09-27T06:03:52.203Z,9.90
2022-09-27T06:06:23.620Z,10.10
2022-09-27T06:08:55.854Z,10.10
2022-09-27T06:11:27.519Z,10.10
2022-09-27T06:13:55.414Z,10.10
2022-09-27T06:16:26.685Z,10.00
2022-09-27T06:18:54.924Z,9.90
2022-09-27T06:21:23.037Z,9.90
2022-09-27T06:23:57.206Z,10.00
2022-09-27T06:26:31.136Z,10.00
2022-09-27T06:29:17.584Z,10.10
2022-09-27T06:31:56.467Z,10.10
2022-09-27T06:34:37.169Z,10.10
2022-09-27T06:37:05.512Z,10.20
2022-09-27T06:39:34.920Z,10.20
2022-09-27T06:42:21.541Z,10.40
2022-09-27T06:45:06.427Z,10.40
2022-09-27T06:47:54.679Z,10.70
2022-09-27T06:50:34.639Z,10.90
2022-09-27T06:53:03.100Z,10.90
2022-09-27T06:55:30.962Z,11.40
2022-09-27T06:58:17.220Z,12.10
2022-09-27T07:01:05.279Z,12.40
2022-09-27T07:04:07.255Z,12.40
2022-09-27T07:06:49.760Z,12.20
2022-09-27T07:09:23.999Z,11.90
2022-09-27T07:11:53.409Z,11.70
2022-09-27T07:14:21.589Z,11.60
2022-09-27T07:16:50.687Z,11.70
2022-09-27T07:19:21.116Z,11.80
2022-09-27T07:21:52.569Z,11.70
2022-09-27T07:24:20.559Z,11.60
2022-09-27T07:26:48.973Z,11.50
2022-09-27T07:29:19.395Z,11.80
2022-09-27T07:31:48.762Z,12.00
2022-09-27T07:34:18.194Z,11.80
2022-09-27T07:36:47.990Z,11.70
2022-09-27T07:39:16.239Z,11.80
2022-09-27T07:41:45.185Z,12.10
2022-09-27T07:44:14.743Z,13.40
2022-09-27T07:46:55.726Z,13.60
2022-09-27T07:49:28.365Z,13.90
2022-09-27T07:52:13.900Z,13.80
2022-09-27T07:55:08.819Z,13.80
2022-09-27T07:57:50.283Z,14.00
2022-09-27T08:00:21.693Z,14.40
2022-09-27T08:02:49.607Z,13.60
2022-09-27T08:05:17.683Z,13.80
2022-09-27T08:07:46.960Z,13.60
2022-09-27T08:10:15.353Z,13.20
2022-09-27T08:12:43.274Z,14.20
2022-09-27T08:15:11.766Z,14.60
2022-09-27T08:17:39.646Z,14.20
2022-09-27T08:20:23.399Z,13.70
2022-09-27T08:23:25.277Z,13.60
2022-09-27T08:26:07.737Z,12.70
2022-09-27T08:28:57.220Z,11.50
2022-09-27T08:31:28.163Z,10.70
2022-09-27T08:33:57.950Z,10.40
2022-09-27T08:36:25.884Z,10.20
2022-09-27T08:38:59.017Z,10.40
2022-09-27T08:41:38.877Z,10.20
2022-09-27T08:44:18.740Z,10.30
2022-09-27T08:47:17.706Z,10.60
2022-09-27T08:49:51.362Z,10.40
2022-09-27T08:52:24.201Z,10.50
2022-09-27T08:54:53.952Z,10.60
2022-09-27T08:57:24.611Z,10.90
2022-09-27T09:00:05.878Z,11.50
2022-09-27T09:02:34.440Z,12.60
2022-09-27T09:05:08.617Z,12.90
2022-09-27T09:08:00.073Z,13.60
2022-09-27T09:11:03.363Z,15.30
2022-09-27T09:13:46.908Z,15.30
2022-09-27T09:16:26.109Z,13.80
2022-09-27T09:19:06.814Z,12.80
2022-09-27T09:22:08.730Z,12.80
2022-09-27T09:24:48.306Z,13.80
2022-09-27T09:27:25.795Z,15.40
2022-09-27T09:30:13.051Z,16.90
2022-09-27T09:32:56.149Z,17.60
2022-09-27T09:35:27.384Z,17.70
2022-09-27T09:37:59.697Z,17.70
2022-09-27T09:40:30.937Z,18.40
2022-09-27T09:43:03.710Z,18.80
2022-09-27T09:45:34.037Z,18.50
2022-09-27T09:48:09.917Z,17.20
2022-09-27T09:50:42.407Z,15.70
2022-09-27T09:53:16.369Z,14.30
2022-09-27T09:55:48.988Z,13.90
2022-09-27T09:58:25.209Z,13.20
2022-09-27T10:01:14.834Z,13.00
2022-09-27T10:03:43.966Z,12.80
2022-09-27T10:06:14.073Z,12.90
2022-09-27T10:08:42.646Z,12.70
2022-09-27T10:11:25.966Z,12.30
2022-09-27T10:14:13.500Z,11.90
2022-09-27T10:16:43.861Z,11.60
2022-09-27T10:19:13.045Z,11.60
2022-09-27T10:21:45.209Z,11.50
2022-09-27T10:24:18.429Z,11.10
2022-09-27T10:27:02.085Z,10.70
2022-09-27T10:29:38.028Z,10.80
2022-09-27T10:32:23.093Z,10.70
2022-09-27T10:34:52.371Z,10.70
2022-09-27T10:37:23.710Z,10.80
2022-09-27T10:40:26.734Z,11.10
2022-09-27T10:42:55.778Z,11.60
2022-09-27T10:45:33.001Z,11.90
2022-09-27T10:48:22.315Z,11.80
2022-09-27T10:50:59.891Z,11.50
2022-09-27T10:53:45.406Z,11.60
2022-09-27T10:56:25.058Z,11.80
2022-09-27T10:58:53.727Z,11.90
2022-09-27T11:01:25.104Z,12.30
2022-09-27T11:04:24.213Z,12.30
2022-09-27T11:06:52.297Z,14.50
2022-09-27T11:09:27.148Z,15.90
2022-09-27T11:12:11.179Z,16.60
2022-09-27T11:14:39.709Z,16.70
2022-09-27T11:17:17.083Z,17.20
2022-09-27T11:20:16.544Z,16.30
2022-09-27T11:23:13.023Z,16.80
2022-09-27T11:25:47.610Z,15.30
2022-09-27T11:28:25.884Z,14.10
2022-09-27T11:31:03.899Z,13.20
2022-09-27T11:33:57.456Z,12.80
2022-09-27T11:36:44.582Z,14.10
2022-09-27T11:39:20.701Z,14.10
2022-09-27T11:42:05.189Z,13.40
2022-09-27T11:45:19.886Z,13.00
2022-09-27T11:47:57.107Z,12.90
2022-09-27T11:50:55.818Z,12.80
2022-09-27T11:53:49.364Z,12.60
2022-09-27T11:56:30.683Z,12.20
2022-09-27T11:59:19.182Z,12.10
2022-09-27T12:01:55.314Z,12.20
2022-09-27T12:04:40.355Z,12.30
2022-09-27T12:07:18.689Z,12.20
2022-09-27T12:09:51.583Z,11.80
2022-09-27T12:12:21.417Z,11.50
2022-09-27T12:14:54.826Z,11.30
2022-09-27T12:17:27.512Z,11.50
2022-09-27T12:20:00.868Z,11.60
2022-09-27T12:22:59.155Z,11.70
2022-09-27T12:25:52.774Z,11.80
2022-09-27T12:28:34.712Z,12.20
2022-09-27T12:31:28.652Z,12.50
2022-09-27T12:34:10.805Z,12.80
2022-09-27T12:36:45.429Z,13.40
2022-09-27T12:39:22.214Z,13.50
2022-09-27T12:42:02.233Z,13.40
2022-09-27T12:44:50.578Z,13.60
2022-09-27T12:47:48.406Z,14.10
2022-09-27T12:50:30.297Z,14.40
2022-09-27T12:53:05.434Z,14.20
2022-09-27T12:55:50.931Z,13.70
2022-09-27T12:59:01.420Z,13.30
2022-09-27T13:01:52.141Z,13.30
2022-09-27T13:04:41.565Z,13.50
2022-09-27T13:07:28.089Z,13.80
2022-09-27T13:10:17.124Z,13.60
2022-09-27T13:12:53.431Z,13.40
2022-09-27T13:15:27.811Z,13.20
2022-09-27T13:17:59.586Z,13.20
2022-09-27T13:20:55.611Z,13.20
2022-09-27T13:24:03.571Z,13.00
2022-09-27T13:26:51.024Z,12.80
2022-09-27T13:29:33.132Z,13.00
2022-09-27T13:32:20.857Z,12.80
2022-09-27T13:35:20.656Z,12.50
2022-09-27T13:37:58.974Z,12.60
2022-09-27T13:40:36.293Z,12.70
2022-09-27T13:43:48.601Z,13.00
2022-09-27T13:46:28.532Z,13.00
2022-09-27T13:49:00.266Z,12.80
2022-09-27T13:51:45.398Z,12.90
2022-09-27T13:54:39.841Z,12.80
2022-09-27T13:57:43.051Z,12.50
2022-09-27T14:00:16.114Z,12.10
2022-09-27T14:02:56.051Z,11.70
2022-09-27T14:05:31.070Z,11.30
2022-09-27T14:08:02.323Z,11.00
2022-09-27T14:10:31.848Z,11.00
2022-09-27T14:13:04.178Z,11.00
2022-09-27T14:15:34.104Z,10.70
2022-09-27T14:18:06.486Z,10.50
2022-09-27T14:20:38.748Z,10.60
2022-09-27T14:23:18.106Z,10.60
2022-09-27T14:25:47.973Z,10.60
2022-09-27T14:28:22.468Z,10.70
2022-09-27T14:31:08.259Z,10.70
2022-09-27T14:33:52.442Z,10.80
2022-09-27T14:36:49.038Z,10.80
2022-09-27T14:39:22.582Z,11.20
2022-09-27T14:41:54.248Z,11.50
2022-09-27T14:44:27.356Z,11.40
2022-09-27T14:47:10.198Z,11.50
2022-09-27T14:49:48.116Z,11.20
2022-09-27T14:52:21.436Z,10.80
2022-09-27T14:54:58.255Z,10.60
2022-09-27T14:57:28.229Z,10.50
2022-09-27T14:59:57.805Z,10.60
2022-09-27T15:02:28.114Z,10.70
2022-09-27T15:04:57.355Z,10.80
2022-09-27T15:07:25.605Z,10.80
2022-09-27T15:09:53.758Z,10.80
2022-09-27T15:12:26.313Z,10.70
2022-09-27T15:14:58.160Z,10.70
2022-09-27T15:17:26.419Z,10.80
2022-09-27T15:20:01.063Z,10.90
2022-09-27T15:22:42.320Z,10.80
2022-09-27T15:25:20.285Z,10.90
2022-09-27T15:27:53.717Z,10.90
2022-09-27T15:30:29.020Z,10.90
2022-09-27T15:32:58.156Z,11.00
2022-09-27T15:35:33.301Z,10.90
2022-09-27T15:38:32.768Z,11.00
2022-09-27T15:41:09.412Z,11.20
2022-09-27T15:43:40.746Z,11.30
2022-09-27T15:46:30.525Z,11.60
2022-09-27T15:49:21.738Z,11.60
2022-09-27T15:51:52.030Z,11.60
2022-09-27T15:54:20.854Z,11.60
2022-09-27T15:56:54.510Z,11.50
2022-09-27T15:59:26.978Z,11.30
2022-09-27T16:01:58.537Z,11.10
2022-09-27T16:04:26.835Z,10.90
2022-09-27T16:06:56.243Z,10.80
2022-09-27T16:09:24.142Z,10.80
2022-09-27T16:11:52.122Z,10.80
2022-09-27T16:14:20.250Z,10.80
2022-09-27T16:16:51.248Z,10.90
2022-09-27T16:19:19.166Z,10.90
2022-09-27T16:21:48.464Z,10.90
2022-09-27T16:24:18.134Z,10.80
2022-09-27T16:26:46.014Z,10.80
2022-09-27T16:29:15.268Z,10.70
2022-09-27T16:31:44.157Z,10.70
2022-09-27T16:34:12.325Z,10.60
2022-09-27T16:36:40.825Z,10.50
2022-09-27T16:39:12.790Z,10.40
2022-09-27T16:41:43.441Z,10.50
2022-09-27T16:44:13.620Z,10.50
2022-09-27T16:46:42.417Z,10.50
2022-09-27T16:49:31.366Z,10.40
2022-09-27T16:52:01.770Z,10.40
2022-09-27T16:54:30.368Z,10.30
2022-09-27T16:57:00.372Z,10.30
2022-09-27T16:59:28.488Z,10.30
2022-09-27T17:01:57.924Z,10.30
2022-09-27T17:04:27.420Z,10.30
2022-09-27T17:06:55.335Z,10.30
2022-09-27T17:09:23.334Z,10.20
2022-09-27T17:11:52.104Z,10.20
2022-09-27T17:14:22.255Z,10.10
2022-09-27T17:16:50.904Z,10.00
2022-09-27T17:19:19.216Z,9.90
2022-09-27T17:21:47.519Z,9.70
2022-09-27T17:24:15.516Z,9.70
2022-09-27T17:26:43.874Z,9.60
2022-09-27T17:29:12.283Z,9.60
2022-09-27T17:31:42.733Z,9.50
2022-09-27T17:34:13.107Z,9.50
2022-09-27T17:36:43.155Z,9.40
2022-09-27T17:39:13.526Z,9.30
2022-09-27T17:41:41.418Z,9.30
2022-09-27T17:44:13.235Z,9.30
2022-09-27T17:46:44.158Z,9.20
2022-09-27T17:49:30.566Z,9.30
2022-09-27T17:51:58.929Z,9.20
2022-09-27T17:54:27.840Z,9.10
2022-09-27T17:56:56.223Z,9.10
2022-09-27T17:59:24.217Z,9.10
2022-09-27T18:01:53.484Z,9.00
2022-09-27T18:04:21.404Z,9.10
2022-09-27T18:06:49.326Z,9.10
2022-09-27T18:09:18.749Z,9.00
2022-09-27T18:11:46.735Z,9.00
2022-09-27T18:14:14.822Z,9.00
2022-09-27T18:16:44.016Z,9.00
2022-09-27T18:19:16.692Z,9.00
2022-09-27T18:21:45.061Z,9.00
2022-09-27T18:24:14.701Z,9.00
2022-09-27T18:26:44.049Z,9.00
2022-09-27T18:29:14.228Z,9.00
2022-09-27T18:31:47.422Z,9.00
2022-09-27T18:34:18.460Z,8.90
2022-09-27T18:36:46.880Z,8.90
2022-09-27T18:39:18.207Z,8.90
2022-09-27T18:41:48.439Z,8.90
2022-09-27T18:44:17.324Z,8.90
2022-09-27T18:46:45.351Z,8.90
2022-09-27T18:49:15.030Z,9.00
2022-09-27T18:51:46.937Z,9.00
2022-09-27T18:54:16.833Z,9.00
2022-09-27T18:56:45.351Z,9.00
2022-09-27T18:59:13.398Z,9.10
2022-09-27T19:01:45.163Z,9.10
2022-09-27T19:04:17.534Z,9.00
2022-09-27T19:06:48.625Z,9.00
2022-09-27T19:09:16.507Z,9.00
2022-09-27T19:11:44.555Z,9.00
2022-09-27T19:14:17.145Z,9.00
2022-09-27T19:16:46.938Z,9.00
2022-09-27T19:19:15.155Z,9.10
2022-09-27T19:21:43.063Z,9.00
2022-09-27T19:24:13.767Z,9.00
2022-09-27T19:26:43.266Z,8.90
2022-09-27T19:29:14.815Z,8.90
2022-09-27T19:31:43.591Z,8.90
2022-09-27T19:34:11.822Z,8.90
2022-09-27T19:36:39.757Z,8.80
2022-09-27T19:39:07.962Z,8.80
2022-09-27T19:41:37.231Z,8.90
2022-09-27T19:44:05.138Z,8.90
2022-09-27T19:46:33.220Z,8.90
2022-09-27T19:49:01.704Z,9.00
2022-09-27T19:51:30.174Z,9.00
2022-09-27T19:53:58.349Z,8.90
2022-09-27T19:56:26.409Z,8.90
2022-09-27T19:58:55.834Z,9.00
2022-09-27T20:01:25.416Z,9.00
2022-09-27T20:03:55.709Z,9.10
2022-09-27T20:06:23.598Z,9.10
2022-09-27T20:08:51.867Z,9.10
2022-09-27T20:11:20.696Z,9.00
2022-09-27T20:13:49.167Z,9.00
2022-09-27T20:16:19.637Z,9.00
2022-09-27T20:18:48.681Z,9.00
2022-09-27T20:21:17.344Z,8.90
2022-09-27T20:23:48.782Z,8.90
2022-09-27T20:26:18.705Z,8.90
2022-09-27T20:28:48.124Z,8.90
2022-09-27T20:31:20.432Z,8.90
2022-09-27T20:33:50.627Z,8.90
2022-09-27T20:36:20.279Z,8.80
2022-09-27T20:38:49.541Z,8.80
2022-09-27T20:41:20.150Z,8.80
2022-09-27T20:43:48.435Z,8.80
2022-09-27T20:46:18.048Z,8.70
2022-09-27T20:48:51.692Z,8.70
2022-09-27T20:51:19.700Z,8.70
2022-09-27T20:53:49.016Z,8.70
2022-09-27T20:56:18.420Z,8.70
2022-09-27T20:58:47.009Z,8.70
2022-09-27T21:01:15.546Z,8.70
2022-09-27T21:03:43.497Z,8.60
2022-09-27T21:06:13.808Z,8.60
2022-09-27T21:08:42.114Z,8.60
2022-09-27T21:11:12.563Z,8.60
2022-09-27T21:13:41.488Z,8.60
2022-09-27T21:16:14.257Z,8.50
2022-09-27T21:18:42.941Z,8.50
2022-09-27T21:21:14.350Z,8.50
2022-09-27T21:23:45.085Z,8.50
2022-09-27T21:26:15.047Z,8.50
2022-09-27T21:28:44.848Z,8.60
2022-09-27T21:31:18.938Z,8.60
2022-09-27T21:33:53.371Z,8.60
2022-09-27T21:36:23.783Z,8.50
2022-09-27T21:38:52.022Z,8.50
2022-09-27T21:41:20.403Z,8.60
2022-09-27T21:43:49.313Z,8.60
2022-09-27T21:46:19.104Z,8.60
2022-09-27T21:48:48.794Z,8.60
2022-09-27T21:51:19.208Z,8.50
2022-09-27T21:53:52.856Z,8.50
2022-09-27T21:56:21.377Z,8.50
2022-09-27T21:58:49.864Z,8.50
2022-09-27T22:01:19.783Z,8.40
2022-09-27T22:03:48.963Z,8.40
2022-09-27T22:06:18.638Z,8.40
2022-09-27T22:08:47.389Z,8.50
2022-09-27T22:11:19.367Z,8.50
2022-09-27T22:13:47.379Z,8.50
2022-09-27T22:16:16.724Z,8.50
2022-09-27T22:18:45.540Z,8.50
2022-09-27T22:21:15.057Z,8.60
2022-09-27T22:23:42.957Z,8.60
2022-09-27T22:26:14.923Z,8.60
2022-09-27T22:28:45.329Z,8.60
2022-09-27T22:31:15.052Z,8.70
2022-09-27T22:33:43.742Z,8.70
2022-09-27T22:36:11.546Z,8.70
2022-09-27T22:38:39.401Z,8.70
2022-09-27T22:41:07.269Z,8.70
2022-09-27T22:43:35.138Z,8.70
2022-09-27T22:46:04.567Z,8.80
2022-09-27T22:48:33.199Z,8.80
2022-09-27T22:51:01.743Z,8.80
2022-09-27T22:53:30.621Z,8.80
2022-09-27T22:56:03.787Z,8.80
2022-09-27T22:58:32.772Z,8.80
2022-09-27T23:01:00.994Z,8.70
2022-09-27T23:03:30.347Z,8.70
2022-09-27T23:06:02.931Z,8.70
2022-09-27T23:08:33.373Z,8.60
2022-09-27T23:11:05.788Z,8.60
2022-09-27T23:13:35.039Z,8.60
2022-09-27T23:16:04.169Z,8.60
2022-09-27T23:18:33.637Z,8.60
2022-09-27T23:21:03.330Z,8.60
2022-09-27T23:23:31.796Z,8.60
2022-09-27T23:26:01.007Z,8.60
2022-09-27T23:28:29.502Z,8.60
2022-09-27T23:30:57.746Z,8.60
2022-09-27T23:33:28.009Z,8.70
2022-09-27T23:35:57.830Z,8.70
2022-09-27T23:38:25.624Z,8.70
2022-09-27T23:40:53.505Z,8.60
2022-09-27T23:43:21.363Z,8.70
2022-09-27T23:45:49.213Z,8.70
2022-09-27T23:48:18.065Z,8.70
2022-09-27T23:50:45.872Z,8.80
2022-09-27T23:53:15.093Z,8.80
2022-09-27T23:55:42.963Z,8.80
2022-09-27T23:58:10.778Z,8.80
